Time;durP1;ratioP1;P1;durP2;ratioP2;P2;SDS_P1;SDS_P2;PMS_P1;PMS_P2;Temp;Humidity;BMP_temperature;BMP_pressure;BME280_temperature;BME280_humidity;BME280_pressure;Samples;Min_cycle;Max_cycle;Signal;HPM_P1;HPM_P2
2023/12/10 00:00:03;;;;;;;;;;;;;;;2.65;100.00;98122.77;67998;1275;1016228;-70
2023/12/10 00:03:06;;;;;;;;;;;;;;;2.70;100.00;98116.91;68076;1275;1016380;-70
2023/12/10 00:06:08;;;;;;;;;;;;;;;2.71;100.00;98108.75;67974;1275;1016317;-70
2023/12/10 00:09:11;;;;;;;;;;;;;;;2.77;100.00;98112.65;68014;1275;1016517;-70
2023/12/10 00:12:14;;;;;;;;;;;;;;;2.87;100.00;98114.83;68056;1275;1016869;-70
2023/12/10 00:15:16;;;;;;;;;;;;;;;2.78;100.00;98104.48;68038;1275;1016077;-70
2023/12/10 00:18:19;;;;;;;;;;;;;;;2.61;100.00;98100.68;68021;1275;1018367;-70
2023/12/10 00:21:22;;;;;;;;;;;;;;;2.29;100.00;98105.76;68043;1275;1016504;-70
2023/12/10 00:24:24;;;;;;;;;;;;;;;2.18;100.00;98099.10;68060;1275;1016429;-70
2023/12/10 00:27:27;;;;;;;;;;;;;;;2.30;100.00;98099.48;68006;1275;1016454;-70
2023/12/10 00:30:29;;;;;;;;;;;;;;;2.47;100.00;98097.81;68006;1275;1016393;-70
2023/12/10 00:33:32;;;;;;;;;;;;;;;2.48;100.00;98104.48;68068;1275;1016422;-70
2023/12/10 00:36:35;;;;;;;;;;;;;;;2.42;100.00;98100.23;68035;1275;1015846;-70
2023/12/10 00:39:37;;;;;;;;;;;;;;;2.33;100.00;98099.90;67987;1275;1016262;-70
2023/12/10 00:42:41;;;;;;;;;;;;;;;2.31;100.00;98111.21;68087;1275;1016304;-70
2023/12/10 00:45:44;;;;;;;;;;;;;;;2.09;100.00;98112.90;68062;1275;1016502;-70
2023/12/10 00:48:47;;;;;;;;;;;;;;;2.03;100.00;98114.86;68027;1275;1016407;-70
2023/12/10 00:51:50;;;;;;;;;;;;;;;2.03;100.00;98122.42;68002;1275;1016417;-70
2023/12/10 00:54:52;;;;;;;;;;;;;;;2.15;100.00;98121.63;68082;1275;1017107;-70
2023/12/10 00:57:55;;;;;;;;;;;;;;;2.07;100.00;98119.70;67960;1275;1016218;-70
2023/12/10 01:00:58;;;;;;;;;;;;;;;1.99;100.00;98120.17;68012;1275;1016409;-70
2023/12/10 01:04:00;;;;;;;;;;;;;;;1.98;100.00;98118.48;68043;1275;1015995;-70
2023/12/10 01:07:03;;;;;;;;;;;;;;;1.93;100.00;98115.05;68033;1275;1016471;-70
2023/12/10 01:10:06;;;;;;;;;;;;;;;1.91;100.00;98108.73;68022;1275;1016458;-71
2023/12/10 01:13:09;;;;;;;;;;;;;;;2.01;100.00;98105.59;68007;1275;1016342;-70
2023/12/10 01:16:12;;;;;;;;;;;;;;;1.99;100.00;98101.02;68048;1275;1016462;-70
2023/12/10 01:19:15;;;;;;;;;;;;;;;1.95;100.00;98096.83;68053;1275;1016400;-70
2023/12/10 01:22:18;;;;;;;;;;;;;;;1.91;100.00;98099.93;68026;1275;1016338;-70
2023/12/10 01:25:21;;;;;;;;;;;;;;;1.86;100.00;98100.81;68081;1275;1016377;-70
2023/12/10 01:28:26;;;;;;;;;;;;;;;1.77;100.00;98108.21;68031;1275;1016389;-70
2023/12/10 01:31:29;;;;;;;;;;;;;;;1.56;100.00;98103.45;68066;1275;1018201;-70
2023/12/10 01:34:31;;;;;;;;;;;;;;;1.36;100.00;98102.44;68051;1275;1015656;-70
2023/12/10 01:37:34;;;;;;;;;;;;;;;1.38;100.00;98095.46;68007;1275;1016393;-70
2023/12/10 01:40:37;;;;;;;;;;;;;;;1.30;100.00;98093.35;68040;1275;1016458;-70
2023/12/10 01:43:39;;;;;;;;;;;;;;;1.25;100.00;98088.71;68046;1275;1016573;-70
2023/12/10 01:46:43;;;;;;;;;;;;;;;1.22;100.00;98088.11;68049;1275;1016431;-70
2023/12/10 01:49:46;;;;;;;;;;;;;;;1.13;100.00;98088.59;68005;1275;1016423;-70
2023/12/10 01:52:49;;;;;;;;;;;;;;;1.12;100.00;98080.37;68045;1275;1016527;-70
2023/12/10 01:55:51;;;;;;;;;;;;;;;1.05;100.00;98083.69;68064;1275;1016362;-70
2023/12/10 01:58:54;;;;;;;;;;;;;;;1.06;100.00;98083.48;67985;1275;1016395;-70
2023/12/10 02:01:57;;;;;;;;;;;;;;;1.11;100.00;98079.04;68027;1275;1016274;-70
2023/12/10 02:04:59;;;;;;;;;;;;;;;1.15;100.00;98078.20;68038;1275;1016107;-70
2023/12/10 02:08:02;;;;;;;;;;;;;;;1.17;100.00;98070.04;67999;1275;1016488;-69
2023/12/10 02:11:05;;;;;;;;;;;;;;;1.02;100.00;98060.89;68011;1275;1016430;-70
2023/12/10 02:14:07;;;;;;;;;;;;;;;0.86;100.00;98045.11;68014;1275;1019471;-70
2023/12/10 02:17:10;;;;;;;;;;;;;;;0.85;100.00;98035.31;67926;1275;1016466;-70
2023/12/10 02:20:13;;;;;;;;;;;;;;;0.76;100.00;98026.33;67981;1275;1016386;-70
2023/12/10 02:23:15;;;;;;;;;;;;;;;0.66;100.00;98014.63;68005;1275;1018449;-70
2023/12/10 02:26:18;;;;;;;;;;;;;;;0.70;100.00;98002.08;67999;1275;1016398;-70
2023/12/10 02:29:21;;;;;;;;;;;;;;;0.63;100.00;97993.88;67941;1275;1017684;-70
2023/12/10 02:32:23;;;;;;;;;;;;;;;0.61;100.00;97988.27;68027;1275;1016529;-70
2023/12/10 02:35:26;;;;;;;;;;;;;;;0.50;100.00;97980.38;68022;1275;1016893;-70
2023/12/10 02:38:29;;;;;;;;;;;;;;;0.48;100.00;97985.12;68009;1275;1015772;-70
2023/12/10 02:41:31;;;;;;;;;;;;;;;0.48;100.00;97989.24;68027;1275;1016551;-70
2023/12/10 02:44:34;;;;;;;;;;;;;;;0.55;100.00;97994.17;67986;1275;1016285;-70
2023/12/10 02:47:36;;;;;;;;;;;;;;;0.35;100.00;97998.09;67989;1275;1016041;-70
2023/12/10 02:50:39;;;;;;;;;;;;;;;0.27;100.00;98000.73;68002;1275;1016353;-70
2023/12/10 02:53:42;;;;;;;;;;;;;;;0.32;100.00;97998.36;68048;1275;1016230;-70
2023/12/10 02:56:44;;;;;;;;;;;;;;;0.40;100.00;97984.34;67990;1275;1016062;-70
2023/12/10 02:59:47;;;;;;;;;;;;;;;0.47;100.00;97988.23;67980;1275;1015933;-70
2023/12/10 03:02:50;;;;;;;;;;;;;;;0.32;100.00;97996.64;67983;1275;1016246;-70
2023/12/10 03:05:53;;;;;;;;;;;;;;;0.45;100.00;97991.06;67993;1275;1017678;-70
2023/12/10 03:08:56;;;;;;;;;;;;;;;0.55;100.00;97984.86;68011;1275;1016441;-70
2023/12/10 03:11:58;;;;;;;;;;;;;;;0.60;100.00;97987.98;67999;1275;1017026;-70
2023/12/10 03:15:01;;;;;;;;;;;;;;;0.59;100.00;97990.08;67993;1275;1016128;-70
2023/12/10 03:18:05;;;;;;;;;;;;;;;0.69;100.00;97990.27;68018;1275;1016500;-70
2023/12/10 03:21:08;;;;;;;;;;;;;;;0.73;100.00;97997.33;68028;1275;1018672;-70
2023/12/10 03:24:10;;;;;;;;;;;;;;;0.83;100.00;97993.54;68026;1275;1016248;-70
2023/12/10 03:27:13;;;;;;;;;;;;;;;0.92;100.00;97992.36;67968;1275;1016466;-70
2023/12/10 03:30:16;;;;;;;;;;;;;;;0.68;100.00;97986.48;67980;1275;1016885;-70
2023/12/10 03:33:18;;;;;;;;;;;;;;;0.85;100.00;97980.90;68012;1275;1016389;-70
2023/12/10 03:36:21;;;;;;;;;;;;;;;0.73;100.00;97989.24;67994;1275;1016325;-70
2023/12/10 03:39:24;;;;;;;;;;;;;;;0.73;100.00;97996.31;67983;1275;1016251;-70
2023/12/10 03:42:27;;;;;;;;;;;;;;;0.80;100.00;98002.61;67982;1275;1016120;-70
2023/12/10 03:45:29;;;;;;;;;;;;;;;0.76;100.00;98006.88;67963;1275;1016177;-70
2023/12/10 03:48:32;;;;;;;;;;;;;;;0.55;100.00;98012.58;68004;1275;1016735;-70
2023/12/10 03:51:34;;;;;;;;;;;;;;;0.72;100.00;98003.90;68016;1275;1018223;-70
2023/12/10 03:54:37;;;;;;;;;;;;;;;0.92;100.00;97992.23;67986;1275;1016166;-70
2023/12/10 03:57:39;;;;;;;;;;;;;;;0.92;100.00;97989.28;67999;1275;1016432;-70
2023/12/10 04:00:42;;;;;;;;;;;;;;;0.91;100.00;97983.30;68039;1275;1018717;-70
2023/12/10 04:03:45;;;;;;;;;;;;;;;0.91;100.00;97985.88;68020;1275;1016434;-70
2023/12/10 04:06:47;;;;;;;;;;;;;;;0.81;100.00;97982.96;68000;1275;1016220;-70
2023/12/10 04:09:50;;;;;;;;;;;;;;;0.84;100.00;97981.97;68049;1275;1016230;-70
2023/12/10 04:12:52;;;;;;;;;;;;;;;0.84;100.00;97979.39;68027;1275;1016355;-70
2023/12/10 04:15:55;;;;;;;;;;;;;;;0.83;100.00;97971.85;68039;1275;1016118;-70
2023/12/10 04:18:58;;;;;;;;;;;;;;;0.60;100.00;97975.41;67987;1275;1016386;-70
2023/12/10 04:22:00;;;;;;;;;;;;;;;0.30;100.00;97976.92;68052;1275;1016427;-70
2023/12/10 04:25:03;;;;;;;;;;;;;;;0.48;100.00;97979.08;68030;1275;1016107;-70
2023/12/10 04:28:06;;;;;;;;;;;;;;;0.45;100.00;97987.61;68039;1275;1016483;-70
2023/12/10 04:31:14;;;;;;;;;;;;;;;0.39;100.00;97995.39;68002;1275;1016282;-70
2023/12/10 04:34:16;;;;;;;;;;;;;;;0.51;100.00;97990.17;68035;1275;1016365;-70
2023/12/10 04:37:19;;;;;;;;;;;;;;;0.44;100.00;97998.48;68042;1275;1016697;-70
2023/12/10 04:40:22;;;;;;;;;;;;;;;0.44;100.00;98005.85;67978;1275;1018805;-70
2023/12/10 04:43:25;;;;;;;;;;;;;;;0.45;100.00;98010.84;68005;1275;1016215;-70
2023/12/10 04:46:28;;;;;;;;;;;;;;;0.39;100.00;98008.63;68016;1275;1016326;-70
2023/12/10 04:49:31;;;;;;;;;;;;;;;0.41;100.00;98001.85;68022;1275;1016462;-70
2023/12/10 04:52:34;;;;;;;;;;;;;;;0.37;100.00;98004.39;68019;1275;1016392;-70
2023/12/10 04:55:39;;;;;;;;;;;;;;;0.48;100.00;98001.10;68013;1275;1018617;-70
2023/12/10 04:58:42;;;;;;;;;;;;;;;0.63;100.00;97996.31;67987;1275;1016398;-70
2023/12/10 05:01:45;;;;;;;;;;;;;;;0.68;100.00;97996.14;67999;1275;1016451;-70
2023/12/10 05:04:47;;;;;;;;;;;;;;;0.72;100.00;97994.61;68031;1275;1016377;-70
2023/12/10 05:07:50;;;;;;;;;;;;;;;0.77;100.00;97994.11;68008;1275;1016668;-70
2023/12/10 05:10:52;;;;;;;;;;;;;;;0.60;100.00;97994.33;67958;1275;1017699;-70
2023/12/10 05:13:55;;;;;;;;;;;;;;;0.64;100.00;97993.02;68035;1275;1016270;-70
2023/12/10 05:16:58;;;;;;;;;;;;;;;0.73;100.00;97995.95;67986;1275;1016408;-70
2023/12/10 05:20:09;;;;;;;;;;;;;;;0.71;100.00;97996.73;67977;1275;1016564;-70
2023/12/10 05:23:12;;;;;;;;;;;;;;;0.56;100.00;97993.43;67995;1275;1016513;-70
2023/12/10 05:26:16;;;;;;;;;;;;;;;0.73;100.00;97994.25;65404;1275;6382369;-70
2023/12/10 05:29:18;;;;;;;;;;;;;;;0.82;100.00;97995.46;68003;1275;1016498;-70
2023/12/10 05:32:21;;;;;;;;;;;;;;;1.16;100.00;97991.71;68035;1275;1019284;-70
2023/12/10 05:35:24;;;;;;;;;;;;;;;1.29;100.00;97990.20;68014;1275;1016437;-70
2023/12/10 05:38:26;;;;;;;;;;;;;;;1.10;100.00;97995.52;67978;1275;1016438;-70
2023/12/10 05:41:29;;;;;;;;;;;;;;;0.84;100.00;97996.45;67980;1275;1016193;-70
2023/12/10 05:44:32;;;;;;;;;;;;;;;0.82;100.00;97992.02;68016;1275;1015679;-70
2023/12/10 05:47:34;;;;;;;;;;;;;;;0.84;100.00;98007.44;68027;1275;1016094;-70
2023/12/10 05:50:37;;;;;;;;;;;;;;;0.86;100.00;98013.91;67958;1275;1016409;-70
2023/12/10 05:53:40;;;;;;;;;;;;;;;0.86;100.00;98020.29;67932;1275;1016354;-70
2023/12/10 05:56:43;;;;;;;;;;;;;;;1.32;100.00;98028.98;68028;1275;1016562;-70
2023/12/10 05:59:45;;;;;;;;;;;;;;;2.13;100.00;98030.61;67990;1275;1016020;-70
2023/12/10 06:02:48;;;;;;;;;;;;;;;2.29;100.00;98029.84;67991;1275;1016005;-70
2023/12/10 06:05:51;;;;;;;;;;;;;;;2.57;100.00;98029.54;68006;1275;1016330;-70
2023/12/10 06:08:53;;;;;;;;;;;;;;;2.50;100.00;98028.98;67928;1275;1016054;-70
2023/12/10 06:11:56;;;;;;;;;;;;;;;2.47;100.00;98028.73;68041;1275;1016349;-70
2023/12/10 06:14:58;;;;;;;;;;;;;;;1.64;100.00;98029.05;68023;1275;1015896;-70
2023/12/10 06:18:04;;;;;;;;;;;;;;;1.55;100.00;98028.02;68026;1275;1016518;-70
2023/12/10 06:21:06;;;;;;;;;;;;;;;1.62;100.00;98032.23;68022;1275;1016084;-70
2023/12/10 06:24:09;;;;;;;;;;;;;;;1.92;100.00;98038.67;67992;1275;1016500;-70
2023/12/10 06:27:12;;;;;;;;;;;;;;;1.97;100.00;98039.17;67994;1275;1016430;-70
2023/12/10 06:30:14;;;;;;;;;;;;;;;2.10;100.00;98039.89;68005;1275;1017773;-70
2023/12/10 06:33:17;;;;;;;;;;;;;;;2.31;100.00;98045.26;68007;1275;1016275;-70
2023/12/10 06:36:20;;;;;;;;;;;;;;;2.31;100.00;98042.02;67984;1275;1016807;-70
2023/12/10 06:39:23;;;;;;;;;;;;;;;2.38;100.00;98044.83;68015;1275;1016052;-70
2023/12/10 06:42:27;;;;;;;;;;;;;;;2.26;100.00;98050.66;68002;1275;1018138;-70
2023/12/10 06:45:30;;;;;;;;;;;;;;;2.22;100.00;98059.08;67988;1275;1016484;-70
2023/12/10 06:48:33;;;;;;;;;;;;;;;2.06;100.00;98065.23;68002;1275;1016357;-70
2023/12/10 06:51:36;;;;;;;;;;;;;;;2.13;100.00;98072.04;67971;1275;1016410;-70
2023/12/10 06:54:40;;;;;;;;;;;;;;;2.10;100.00;98075.60;68019;1275;1016551;-70
2023/12/10 06:57:42;;;;;;;;;;;;;;;2.08;100.00;98079.63;67968;1275;1016255;-70
2023/12/10 07:00:45;;;;;;;;;;;;;;;2.31;100.00;98090.98;67998;1275;1016515;-70
2023/12/10 07:03:48;;;;;;;;;;;;;;;2.16;100.00;98091.23;67979;1275;1016295;-70
2023/12/10 07:06:50;;;;;;;;;;;;;;;2.25;100.00;98092.61;67967;1275;1016429;-70
2023/12/10 07:09:53;;;;;;;;;;;;;;;2.29;100.00;98091.09;68030;1275;1016532;-70
2023/12/10 07:12:55;;;;;;;;;;;;;;;2.35;100.00;98090.85;68028;1275;1016432;-70
2023/12/10 07:16:01;;;;;;;;;;;;;;;2.29;100.00;98094.54;68051;1275;1017642;-70
2023/12/10 07:19:04;;;;;;;;;;;;;;;2.27;100.00;98094.41;68036;1275;1016382;-70
2023/12/10 07:22:06;;;;;;;;;;;;;;;2.30;100.00;98099.67;67987;1275;1016286;-70
2023/12/10 07:25:09;;;;;;;;;;;;;;;2.13;100.00;98103.58;68036;1275;1016446;-70
2023/12/10 07:28:12;;;;;;;;;;;;;;;2.34;100.00;98112.96;68024;1275;1016437;-70
2023/12/10 07:31:14;;;;;;;;;;;;;;;2.38;100.00;98116.77;68021;1275;1016492;-70
2023/12/10 07:34:17;;;;;;;;;;;;;;;2.30;100.00;98116.23;68029;1275;1016537;-70
2023/12/10 07:37:21;;;;;;;;;;;;;;;2.46;100.00;98123.56;67965;1275;1016291;-70
2023/12/10 07:40:23;;;;;;;;;;;;;;;2.64;100.00;98126.33;68033;1275;1016294;-70
2023/12/10 07:43:26;;;;;;;;;;;;;;;2.92;100.00;98128.64;68034;1275;1016441;-70
2023/12/10 07:46:29;;;;;;;;;;;;;;;2.98;100.00;98122.50;67926;1275;1015851;-70
2023/12/10 07:49:31;;;;;;;;;;;;;;;3.16;100.00;98128.70;68062;1275;1016400;-70
2023/12/10 07:52:34;;;;;;;;;;;;;;;3.23;100.00;98130.48;68029;1275;1017060;-70
2023/12/10 07:55:36;;;;;;;;;;;;;;;3.42;100.00;98130.34;68005;1275;1016276;-70
2023/12/10 07:58:39;;;;;;;;;;;;;;;3.55;100.00;98134.10;68019;1275;1018885;-70
2023/12/10 08:01:42;;;;;;;;;;;;;;;3.77;100.00;98131.22;68036;1275;1016452;-70
2023/12/10 08:04:44;;;;;;;;;;;;;;;4.11;100.00;98134.23;67997;1275;1015850;-70
2023/12/10 08:07:47;;;;;;;;;;;;;;;4.21;100.00;98136.36;68006;1275;1016561;-70
2023/12/10 08:10:49;;;;;;;;;;;;;;;4.19;100.00;98142.31;68010;1275;1016202;-70
2023/12/10 08:13:52;;;;;;;;;;;;;;;4.02;100.00;98148.99;67986;1275;1016078;-70
2023/12/10 08:16:55;;;;;;;;;;;;;;;4.30;100.00;98155.14;67974;1275;1016568;-70
2023/12/10 08:19:57;;;;;;;;;;;;;;;4.46;100.00;98156.49;68073;1275;1016308;-70
2023/12/10 08:23:00;;;;;;;;;;;;;;;4.58;100.00;98157.31;68023;1275;1016422;-70
2023/12/10 08:26:03;;;;;;;;;;;;;;;4.60;100.00;98160.16;68011;1275;1016396;-70
2023/12/10 08:29:07;;;;;;;;;;;;;;;4.58;100.00;98158.53;67982;1275;1016388;-70
2023/12/10 08:32:10;;;;;;;;;;;;;;;4.70;100.00;98163.86;68038;1275;1016427;-70
2023/12/10 08:35:12;;;;;;;;;;;;;;;4.93;100.00;98164.16;67992;1275;1016776;-70
2023/12/10 08:38:15;;;;;;;;;;;;;;;5.07;100.00;98161.92;68008;1275;1016472;-70
2023/12/10 08:41:18;;;;;;;;;;;;;;;5.14;100.00;98166.79;68001;1275;1016531;-70
2023/12/10 08:44:20;;;;;;;;;;;;;;;5.10;100.00;98160.52;68011;1275;1016197;-70
2023/12/10 08:47:23;;;;;;;;;;;;;;;5.40;100.00;98162.70;67982;1275;1016416;-71
2023/12/10 08:50:25;;;;;;;;;;;;;;;5.49;100.00;98162.60;67985;1275;1016286;-70
2023/12/10 08:53:28;;;;;;;;;;;;;;;5.51;100.00;98156.23;68009;1275;1017189;-70
2023/12/10 08:56:30;;;;;;;;;;;;;;;5.58;100.00;98162.31;68002;1275;1016767;-70
2023/12/10 08:59:33;;;;;;;;;;;;;;;5.58;100.00;98162.85;67979;1275;1016247;-71
2023/12/10 09:02:36;;;;;;;;;;;;;;;5.67;100.00;98164.45;67965;1275;1016425;-70
2023/12/10 09:05:38;;;;;;;;;;;;;;;5.76;100.00;98166.10;67960;1275;1016317;-70
2023/12/10 09:08:41;;;;;;;;;;;;;;;5.67;100.00;98160.46;68000;1275;1016355;-71
2023/12/10 09:11:46;;;;;;;;;;;;;;;5.84;100.00;98156.97;67979;1275;1016368;-71
2023/12/10 09:14:49;;;;;;;;;;;;;;;5.90;100.00;98161.86;68040;1275;1016154;-70
2023/12/10 09:17:52;;;;;;;;;;;;;;;5.86;100.00;98160.70;67971;1275;1016386;-70
2023/12/10 09:20:55;;;;;;;;;;;;;;;5.81;100.00;98159.92;68040;1275;1016384;-70
2023/12/10 09:23:57;;;;;;;;;;;;;;;5.70;100.00;98166.92;68021;1275;1016441;-70
2023/12/10 09:27:00;;;;;;;;;;;;;;;5.77;100.00;98166.89;67977;1275;1016397;-71
2023/12/10 09:30:02;;;;;;;;;;;;;;;5.90;100.00;98164.16;68035;1275;1016300;-70
2023/12/10 09:33:06;;;;;;;;;;;;;;;5.99;100.00;98161.60;68052;1275;1016397;-70
2023/12/10 09:36:08;;;;;;;;;;;;;;;6.23;100.00;98164.52;68007;1275;1016424;-70
2023/12/10 09:39:11;;;;;;;;;;;;;;;6.35;100.00;98164.91;68028;1275;1016218;-70
2023/12/10 09:42:14;;;;;;;;;;;;;;;6.23;100.00;98165.54;67981;1275;1016462;-71
2023/12/10 09:45:17;;;;;;;;;;;;;;;5.99;100.00;98162.84;67983;1275;1016353;-70
2023/12/10 09:48:19;;;;;;;;;;;;;;;5.97;100.00;98167.61;68013;1275;1016957;-71
2023/12/10 09:51:22;;;;;;;;;;;;;;;5.76;100.00;98165.91;67985;1275;1016082;-70
2023/12/10 09:54:25;;;;;;;;;;;;;;;5.95;100.00;98165.27;68016;1275;1018303;-70
2023/12/10 09:57:30;;;;;;;;;;;;;;;5.98;100.00;98161.81;68045;1275;1016427;-70
2023/12/10 10:00:33;;;;;;;;;;;;;;;5.74;100.00;98162.70;68043;1275;1015941;-71
2023/12/10 10:03:36;;;;;;;;;;;;;;;5.76;100.00;98166.09;67991;1275;1016432;-71
2023/12/10 10:06:38;;;;;;;;;;;;;;;5.74;100.00;98166.54;68009;1275;1015937;-71
2023/12/10 10:09:41;;;;;;;;;;;;;;;5.88;100.00;98165.10;68049;1275;1016784;-70
2023/12/10 10:12:43;;;;;;;;;;;;;;;5.82;100.00;98160.06;68047;1275;1016221;-71
2023/12/10 10:15:46;;;;;;;;;;;;;;;5.81;100.00;98159.42;68017;1275;1016370;-70
2023/12/10 10:18:48;;;;;;;;;;;;;;;5.79;100.00;98156.55;68001;1275;1016390;-70
2023/12/10 10:21:51;;;;;;;;;;;;;;;5.82;100.00;98157.80;68058;1275;1016431;-71
2023/12/10 10:24:54;;;;;;;;;;;;;;;5.95;100.00;98159.73;67990;1275;1016383;-71
2023/12/10 10:27:57;;;;;;;;;;;;;;;5.99;100.00;98154.84;68054;1275;1016296;-70
2023/12/10 10:30:59;;;;;;;;;;;;;;;5.95;100.00;98156.94;68020;1275;1018837;-70
2023/12/10 10:34:02;;;;;;;;;;;;;;;5.95;100.00;98152.80;68007;1275;1016322;-71
2023/12/10 10:37:09;;;;;;;;;;;;;;;5.88;100.00;98153.14;68023;1275;1016507;-70
2023/12/10 10:40:12;;;;;;;;;;;;;;;5.91;100.00;98150.91;68001;1275;1016221;-70
2023/12/10 10:43:15;;;;;;;;;;;;;;;5.97;100.00;98150.61;68044;1275;1017202;-71
2023/12/10 10:46:19;;;;;;;;;;;;;;;6.08;100.00;98151.94;68020;1275;1017163;-71
2023/12/10 10:49:22;;;;;;;;;;;;;;;6.18;100.00;98152.78;67973;1275;1016125;-70
2023/12/10 10:52:24;;;;;;;;;;;;;;;6.38;100.00;98153.85;68001;1275;1017041;-71
2023/12/10 10:55:27;;;;;;;;;;;;;;;6.83;100.00;98155.67;67980;1275;1016429;-71
2023/12/10 10:58:30;;;;;;;;;;;;;;;6.90;100.00;98158.96;68039;1275;1016201;-71
2023/12/10 11:01:34;;;;;;;;;;;;;;;6.78;100.00;98161.17;67960;1275;1016489;-71
2023/12/10 11:04:37;;;;;;;;;;;;;;;6.80;100.00;98156.55;68011;1275;1015821;-71
2023/12/10 11:07:40;;;;;;;;;;;;;;;6.77;100.00;98153.39;67983;1275;1016300;-71
2023/12/10 11:10:42;;;;;;;;;;;;;;;6.90;100.00;98153.05;67961;1275;1016510;-71
2023/12/10 11:13:45;;;;;;;;;;;;;;;7.05;100.00;98150.29;67999;1275;1016403;-71
2023/12/10 11:16:48;;;;;;;;;;;;;;;6.95;100.00;98146.00;67983;1275;1016498;-70
2023/12/10 11:19:50;;;;;;;;;;;;;;;6.65;100.00;98150.29;67967;1275;1016433;-70
2023/12/10 11:22:53;;;;;;;;;;;;;;;7.08;100.00;98151.66;68035;1275;1016371;-71
2023/12/10 11:25:56;;;;;;;;;;;;;;;7.05;100.00;98149.72;68013;1275;1016160;-70
2023/12/10 11:28:58;;;;;;;;;;;;;;;7.22;100.00;98145.65;67997;1275;1016401;-71
2023/12/10 11:32:01;;;;;;;;;;;;;;;7.45;100.00;98142.92;68014;1275;1016234;-71
2023/12/10 11:35:04;;;;;;;;;;;;;;;7.46;100.00;98148.25;68019;1275;1018565;-71
2023/12/10 11:38:06;;;;;;;;;;;;;;;7.65;100.00;98149.71;67984;1275;1016943;-71
2023/12/10 11:41:09;;;;;;;;;;;;;;;7.51;100.00;98146.91;68022;1275;1016374;-70
2023/12/10 11:44:12;;;;;;;;;;;;;;;7.46;100.00;98145.80;68025;1275;1016418;-70
2023/12/10 11:47:26;;;;;;;;;;;;;;;7.77;100.00;98145.16;67955;1275;1018837;-71
2023/12/10 11:50:29;;;;;;;;;;;;;;;7.81;100.00;98152.64;68005;1275;1016567;-70
2023/12/10 11:53:32;;;;;;;;;;;;;;;7.85;100.00;98157.61;68026;1275;1016373;-71
2023/12/10 11:56:34;;;;;;;;;;;;;;;7.74;100.00;98162.79;68019;1275;1016458;-71
2023/12/10 11:59:37;;;;;;;;;;;;;;;7.60;100.00;98161.38;68013;1275;1017797;-71
2023/12/10 12:02:40;;;;;;;;;;;;;;;7.68;100.00;98164.89;68042;1275;1016407;-71
2023/12/10 12:05:42;;;;;;;;;;;;;;;7.65;100.00;98166.23;68007;1275;1016151;-71
2023/12/10 12:08:46;;;;;;;;;;;;;;;7.61;100.00;98174.87;68028;1275;1016831;-70
2023/12/10 12:11:50;;;;;;;;;;;;;;;7.19;100.00;98186.84;67958;1276;1015878;-70
2023/12/10 12:14:54;;;;;;;;;;;;;;;7.26;100.00;98189.90;67932;1276;1016494;-70
2023/12/10 12:17:57;;;;;;;;;;;;;;;7.12;100.00;98184.48;67959;1276;1016414;-71
2023/12/10 12:20:59;;;;;;;;;;;;;;;7.09;100.00;98186.19;67944;1276;1016458;-71
2023/12/10 12:24:02;;;;;;;;;;;;;;;6.77;100.00;98188.84;67919;1276;1016530;-71
2023/12/10 12:27:05;;;;;;;;;;;;;;;6.76;100.00;98189.77;67903;1276;1016462;-70
2023/12/10 12:30:08;;;;;;;;;;;;;;;7.11;100.00;98191.11;67883;1276;1016294;-71
2023/12/10 12:33:11;;;;;;;;;;;;;;;7.16;100.00;98189.80;67942;1276;1015982;-70
2023/12/10 12:36:14;;;;;;;;;;;;;;;6.97;100.00;98190.00;67914;1276;1016446;-71
2023/12/10 12:39:16;;;;;;;;;;;;;;;6.89;100.00;98188.37;67909;1276;1016444;-70
2023/12/10 12:42:19;;;;;;;;;;;;;;;6.36;100.00;98185.52;67958;1276;1016554;-71
2023/12/10 12:45:22;;;;;;;;;;;;;;;6.35;100.00;98188.70;67912;1276;1016147;-71
2023/12/10 12:48:25;;;;;;;;;;;;;;;6.35;100.00;98193.58;67920;1276;1016283;-70
2023/12/10 12:51:30;;;;;;;;;;;;;;;6.25;100.00;98195.34;67961;1276;1016355;-71
2023/12/10 12:54:34;;;;;;;;;;;;;;;5.94;100.00;98197.45;67924;1276;1016254;-71
2023/12/10 12:57:37;;;;;;;;;;;;;;;5.79;100.00;98194.92;67884;1276;1016273;-71
2023/12/10 13:00:39;;;;;;;;;;;;;;;6.00;100.00;98192.45;67960;1276;1016467;-71
2023/12/10 13:03:42;;;;;;;;;;;;;;;6.23;100.00;98198.89;67919;1276;1016219;-70
2023/12/10 13:06:45;;;;;;;;;;;;;;;6.25;100.00;98202.45;67922;1276;1016358;-71
2023/12/10 13:09:50;;;;;;;;;;;;;;;6.06;100.00;98203.10;67897;1275;1015870;-70
2023/12/10 13:12:53;;;;;;;;;;;;;;;6.19;100.00;98203.11;68017;1275;1016260;-71
2023/12/10 13:15:57;;;;;;;;;;;;;;;6.33;100.00;98206.86;68012;1275;1016844;-71
2023/12/10 13:18:59;;;;;;;;;;;;;;;6.39;100.00;98204.14;68017;1275;1016186;-71
2023/12/10 13:22:02;;;;;;;;;;;;;;;6.40;100.00;98198.18;67970;1275;1017989;-71
2023/12/10 13:25:05;;;;;;;;;;;;;;;6.38;100.00;98199.11;67964;1275;1016258;-71
2023/12/10 13:28:09;;;;;;;;;;;;;;;6.40;100.00;98204.09;67997;1275;1015982;-71
2023/12/10 13:31:12;;;;;;;;;;;;;;;6.48;100.00;98206.09;68070;1275;1016976;-71
2023/12/10 13:34:15;;;;;;;;;;;;;;;6.33;100.00;98204.26;68055;1275;1016432;-71
2023/12/10 13:37:18;;;;;;;;;;;;;;;6.29;100.00;98209.34;68036;1275;1016474;-71
2023/12/10 13:40:20;;;;;;;;;;;;;;;6.74;100.00;98211.45;68001;1275;1016405;-70
2023/12/10 13:43:23;;;;;;;;;;;;;;;6.80;100.00;98213.18;68014;1275;1016433;-71
2023/12/10 13:46:28;;;;;;;;;;;;;;;6.86;100.00;98216.15;67999;1275;1016576;-71
2023/12/10 13:49:31;;;;;;;;;;;;;;;6.84;100.00;98213.14;68026;1275;1016548;-71
2023/12/10 13:52:34;;;;;;;;;;;;;;;6.81;100.00;98213.69;68037;1275;1016823;-71
2023/12/10 13:55:36;;;;;;;;;;;;;;;6.63;100.00;98215.51;67999;1275;1015992;-71
2023/12/10 13:58:39;;;;;;;;;;;;;;;6.34;100.00;98216.52;67981;1275;1016613;-71
2023/12/10 14:01:42;;;;;;;;;;;;;;;6.43;100.00;98216.77;67999;1275;1016746;-71
2023/12/10 14:04:45;;;;;;;;;;;;;;;6.13;100.00;98214.00;67886;1275;1016459;-71
2023/12/10 14:07:48;;;;;;;;;;;;;;;6.14;100.00;98210.80;67998;1275;1016752;-71
2023/12/10 14:10:51;;;;;;;;;;;;;;;5.98;100.00;98214.96;68011;1275;1016567;-71
2023/12/10 14:13:53;;;;;;;;;;;;;;;5.87;100.00;98216.52;68039;1275;1016299;-71
2023/12/10 14:16:56;;;;;;;;;;;;;;;5.88;100.00;98222.94;67915;1275;1016450;-71
2023/12/10 14:19:59;;;;;;;;;;;;;;;5.57;100.00;98230.36;67987;1275;1016290;-71
2023/12/10 14:23:01;;;;;;;;;;;;;;;5.75;100.00;98233.10;68011;1275;1016336;-70
2023/12/10 14:26:04;;;;;;;;;;;;;;;5.55;100.00;98233.23;67999;1275;1016378;-71
2023/12/10 14:29:07;;;;;;;;;;;;;;;5.27;100.00;98237.52;67988;1275;1016252;-71
2023/12/10 14:32:09;;;;;;;;;;;;;;;5.52;100.00;98237.36;68043;1275;1016379;-71
2023/12/10 14:35:12;;;;;;;;;;;;;;;5.61;100.00;98240.73;68036;1275;1016618;-71
2023/12/10 14:38:15;;;;;;;;;;;;;;;5.73;100.00;98240.13;68004;1275;1016258;-71
2023/12/10 14:41:18;;;;;;;;;;;;;;;5.59;100.00;98241.17;68005;1275;1016395;-71
2023/12/10 14:44:21;;;;;;;;;;;;;;;5.44;100.00;98241.77;68034;1275;1016431;-70
2023/12/10 14:47:23;;;;;;;;;;;;;;;5.27;100.00;98249.36;68005;1275;1016595;-71
2023/12/10 14:50:26;;;;;;;;;;;;;;;5.24;100.00;98246.00;68003;1275;1016262;-71
2023/12/10 14:53:29;;;;;;;;;;;;;;;5.21;100.00;98247.02;68031;1275;1015875;-71
2023/12/10 14:56:32;;;;;;;;;;;;;;;5.11;100.00;98249.08;67981;1275;1016387;-71
2023/12/10 14:59:37;;;;;;;;;;;;;;;5.07;100.00;98247.85;68040;1275;1016250;-71
2023/12/10 15:02:40;;;;;;;;;;;;;;;5.33;100.00;98252.17;68047;1275;1018429;-71
2023/12/10 15:05:43;;;;;;;;;;;;;;;5.44;100.00;98241.95;68031;1275;1016275;-71
2023/12/10 15:08:45;;;;;;;;;;;;;;;5.50;100.00;98247.48;68054;1275;1016091;-71
2023/12/10 15:11:48;;;;;;;;;;;;;;;5.49;100.00;98251.89;68022;1275;1016307;-71
2023/12/10 15:14:50;;;;;;;;;;;;;;;5.38;100.00;98256.45;68048;1275;1016204;-71
2023/12/10 15:17:56;;;;;;;;;;;;;;;5.28;100.00;98251.38;68031;1275;1016148;-71
2023/12/10 15:20:58;;;;;;;;;;;;;;;5.32;100.00;98256.22;67993;1275;1016337;-71
2023/12/10 15:24:01;;;;;;;;;;;;;;;5.41;100.00;98260.79;68055;1275;1018618;-71
2023/12/10 15:27:04;;;;;;;;;;;;;;;5.34;100.00;98260.09;68044;1275;1016261;-71